createdAt,value
2023-04-10T00:04:05.738Z,1.17
2023-04-10T00:08:58.799Z,0.90
2023-04-10T00:13:52.237Z,1.20
2023-04-10T00:18:45.028Z,1.00
2023-04-10T00:23:38.311Z,1.23
2023-04-10T00:28:31.245Z,1.00
2023-04-10T00:33:24.740Z,1.17
2023-04-10T00:38:18.320Z,1.10
2023-04-10T00:43:11.660Z,1.10
2023-04-10T00:48:04.255Z,1.02
2023-04-10T00:52:58.141Z,1.25
2023-04-10T00:57:51.314Z,1.02
2023-04-10T01:02:44.027Z,0.90
2023-04-10T01:08:02.360Z,1.00
2023-04-10T01:13:18.921Z,0.90
2023-04-10T01:18:27.346Z,1.15
2023-04-10T01:23:31.701Z,0.80
2023-04-10T01:28:42.868Z,1.00
2023-04-10T01:33:45.664Z,1.20
2023-04-10T01:38:44.595Z,1.00
2023-04-10T01:43:41.430Z,1.00
2023-04-10T01:48:35.112Z,0.98
2023-04-10T01:53:30.245Z,1.02
2023-04-10T01:58:24.369Z,1.02
2023-04-10T02:03:21.430Z,0.95
2023-04-10T02:08:20.803Z,1.10
2023-04-10T02:13:16.646Z,1.00
2023-04-10T02:18:11.863Z,1.00
2023-04-10T02:23:06.182Z,0.90
2023-04-10T02:27:58.435Z,0.90
2023-04-10T02:32:51.976Z,0.90
2023-04-10T02:37:47.184Z,0.80
2023-04-10T02:42:40.894Z,0.70
2023-04-10T02:47:35.491Z,0.80
2023-04-10T02:52:30.210Z,1.13
2023-04-10T02:57:23.840Z,0.80
2023-04-10T03:02:17.784Z,0.82
2023-04-10T03:07:11.340Z,0.80
2023-04-10T03:12:04.813Z,0.80
2023-04-10T03:16:57.640Z,0.80
2023-04-10T03:21:52.595Z,0.80
2023-04-10T03:26:46.652Z,0.88
2023-04-10T03:31:39.696Z,0.95
2023-04-10T03:36:32.882Z,1.33
2023-04-10T03:41:27.238Z,0.90
2023-04-10T03:46:21.615Z,0.95
2023-04-10T03:51:14.981Z,0.90
2023-04-10T03:56:09.859Z,0.70
2023-04-10T04:01:03.579Z,1.05
2023-04-10T04:06:02.972Z,0.87
2023-04-10T04:11:00.213Z,0.98
2023-04-10T04:16:04.087Z,1.00
2023-04-10T04:21:19.372Z,0.70
2023-04-10T04:26:44.199Z,0.77
2023-04-10T04:32:12.606Z,0.70
2023-04-10T04:37:41.309Z,0.90
2023-04-10T04:43:03.291Z,1.20
2023-04-10T04:48:15.184Z,0.60
2023-04-10T04:53:33.860Z,0.65
2023-04-10T04:58:36.051Z,0.90
2023-04-10T05:03:38.950Z,0.70
2023-04-10T05:08:50.098Z,0.77
2023-04-10T05:14:12.749Z,0.82
2023-04-10T05:19:32.102Z,0.80
2023-04-10T05:24:49.417Z,0.77
2023-04-10T05:29:49.682Z,1.15
2023-04-10T05:35:10.846Z,2.50
2023-04-10T05:40:14.833Z,1.90
2023-04-10T05:45:20.748Z,1.73
2023-04-10T05:50:40.764Z,1.92
2023-04-10T05:56:11.309Z,2.15
2023-04-10T06:01:22.674Z,2.03
2023-04-10T06:06:24.493Z,2.20
2023-04-10T06:11:16.834Z,2.17
2023-04-10T06:16:15.741Z,2.33
2023-04-10T06:21:11.498Z,2.30
2023-04-10T06:26:05.606Z,1.40
2023-04-10T06:30:58.724Z,1.48
2023-04-10T06:35:57.480Z,1.40
2023-04-10T06:40:50.624Z,1.27
2023-04-10T06:45:45.437Z,1.00
2023-04-10T06:50:37.973Z,1.25
2023-04-10T06:55:30.681Z,1.25
2023-04-10T07:00:23.785Z,1.55
2023-04-10T07:05:16.248Z,1.52
2023-04-10T07:10:11.803Z,1.77
2023-04-10T07:15:05.615Z,2.08
2023-04-10T07:19:58.671Z,2.03
2023-04-10T07:24:51.068Z,2.75
2023-04-10T07:29:43.939Z,3.15
2023-04-10T07:34:37.876Z,3.67
2023-04-10T07:39:31.437Z,3.22
2023-04-10T07:44:24.391Z,3.53
2023-04-10T07:49:17.929Z,2.80
2023-04-10T07:54:11.121Z,2.45
2023-04-10T07:59:08.656Z,2.78
2023-04-10T08:04:05.325Z,2.53
2023-04-10T08:08:59.640Z,2.33
2023-04-10T08:14:18.272Z,2.70
2023-04-10T08:19:11.729Z,2.33
2023-04-10T08:24:05.592Z,2.45
2023-04-10T08:29:00.266Z,2.13
2023-04-10T08:33:52.364Z,1.92
2023-04-10T08:38:47.016Z,1.85
2023-04-10T08:43:39.751Z,1.95
2023-04-10T08:48:38.760Z,1.92
2023-04-10T08:53:32.592Z,1.83
2023-04-10T08:58:26.057Z,2.75
2023-04-10T09:03:19.746Z,2.30
2023-04-10T09:08:19.512Z,1.60
2023-04-10T09:13:11.707Z,2.20
2023-04-10T09:18:08.331Z,1.95
2023-04-10T09:23:03.632Z,1.60
2023-04-10T09:28:09.004Z,2.00
2023-04-10T09:33:03.695Z,1.77
2023-04-10T09:37:57.432Z,1.35
2023-04-10T09:42:49.836Z,1.65
2023-04-10T09:47:44.350Z,1.98
2023-04-10T09:52:38.394Z,1.50
2023-04-10T09:57:39.349Z,1.45
2023-04-10T10:02:39.091Z,1.80
2023-04-10T10:07:32.826Z,1.55
2023-04-10T10:12:44.874Z,1.70
2023-04-10T10:17:55.993Z,1.20
2023-04-10T10:22:51.274Z,1.40
2023-04-10T10:27:45.357Z,1.50
2023-04-10T10:32:38.424Z,1.30
2023-04-10T10:37:32.069Z,1.40
2023-04-10T10:42:40.198Z,1.42
2023-04-10T10:47:40.764Z,1.90
2023-04-10T10:52:56.509Z,1.90
2023-04-10T10:57:52.582Z,1.65
2023-04-10T11:02:46.751Z,1.38
2023-04-10T11:07:58.106Z,1.48
2023-04-10T11:13:17.706Z,1.58
2023-04-10T11:18:10.695Z,1.40
2023-04-10T11:23:11.705Z,1.33
2023-04-10T11:28:05.997Z,1.88
2023-04-10T11:33:00.431Z,1.65
2023-04-10T11:38:09.156Z,1.75
2023-04-10T11:43:15.493Z,1.75
2023-04-10T11:48:09.393Z,2.03
2023-04-10T11:53:02.512Z,2.05
2023-04-10T11:57:56.337Z,1.90
2023-04-10T12:03:11.116Z,2.10
2023-04-10T12:08:04.792Z,1.95
2023-04-10T12:13:01.650Z,2.78
2023-04-10T12:17:55.035Z,3.05
2023-04-10T12:22:48.367Z,2.40
2023-04-10T12:28:10.136Z,2.90
2023-04-10T12:33:06.253Z,2.22
2023-04-10T12:37:59.752Z,2.50
2023-04-10T12:42:53.156Z,2.03
2023-04-10T12:47:49.185Z,1.75
2023-04-10T12:52:48.077Z,1.80
2023-04-10T12:57:47.777Z,2.38
2023-04-10T13:02:41.437Z,2.20
2023-04-10T13:07:34.395Z,2.38
2023-04-10T13:12:29.876Z,2.67
2023-04-10T13:17:23.439Z,2.50
2023-04-10T13:22:17.255Z,2.10
2023-04-10T13:27:11.758Z,2.30
2023-04-10T13:32:06.028Z,2.97
2023-04-10T13:36:59.231Z,2.72
2023-04-10T13:41:52.083Z,2.72
2023-04-10T13:46:48.950Z,1.98
2023-04-10T13:51:42.278Z,1.77
2023-04-10T13:56:35.039Z,1.98
2023-04-10T14:01:29.878Z,2.08
2023-04-10T14:06:23.054Z,1.80
2023-04-10T14:11:17.653Z,2.10
2023-04-10T14:16:10.041Z,1.60
2023-04-10T14:21:03.594Z,1.70
2023-04-10T14:26:01.264Z,1.83
2023-04-10T14:30:54.061Z,2.33
2023-04-10T14:35:47.154Z,1.80
2023-04-10T14:40:41.802Z,1.52
2023-04-10T14:45:35.324Z,1.50
2023-04-10T14:50:28.090Z,1.60
2023-04-10T14:55:22.295Z,1.60
2023-04-10T15:00:18.129Z,1.50
2023-04-10T15:05:15.249Z,1.48
2023-04-10T15:10:11.311Z,1.42
2023-04-10T15:15:06.071Z,1.65
2023-04-10T15:19:59.212Z,1.65
2023-04-10T15:24:52.889Z,1.30
2023-04-10T15:29:46.446Z,1.30
2023-04-10T15:34:40.579Z,1.50
2023-04-10T15:39:33.139Z,1.60
2023-04-10T15:44:25.836Z,1.63
2023-04-10T15:49:29.697Z,1.23
2023-04-10T15:54:28.149Z,1.50
2023-04-10T15:59:20.689Z,1.48
2023-04-10T16:04:14.020Z,1.40
2023-04-10T16:09:18.344Z,1.40
2023-04-10T16:14:19.623Z,1.50
2023-04-10T16:19:12.504Z,2.00
2023-04-10T16:24:06.195Z,1.30
2023-04-10T16:28:59.208Z,1.60
2023-04-10T16:33:53.095Z,1.33
2023-04-10T16:38:45.744Z,1.40
2023-04-10T16:43:38.889Z,1.55
2023-04-10T16:48:34.272Z,1.77
2023-04-10T16:53:28.557Z,2.10
2023-04-10T16:58:21.384Z,4.50
2023-04-10T17:03:14.654Z,6.25
2023-04-10T17:08:08.308Z,6.68
2023-04-10T17:13:02.487Z,10.07
2023-04-10T17:17:55.183Z,10.80
2023-04-10T17:22:48.633Z,12.43
2023-04-10T17:27:42.415Z,11.90
2023-04-10T17:32:35.932Z,12.70
2023-04-10T17:37:28.756Z,12.50
2023-04-10T17:42:23.154Z,11.55
2023-04-10T17:47:17.877Z,10.82
2023-04-10T17:52:11.044Z,9.93
2023-04-10T17:57:04.231Z,9.55
2023-04-10T18:01:57.575Z,9.20
2023-04-10T18:06:51.519Z,8.18
2023-04-10T18:11:45.192Z,7.53
2023-04-10T18:16:39.935Z,7.25
2023-04-10T18:21:35.221Z,6.38
2023-04-10T18:26:34.117Z,6.07
2023-04-10T18:31:27.849Z,5.05
2023-04-10T18:36:24.290Z,5.00
2023-04-10T18:41:17.559Z,5.30
2023-04-10T18:46:10.784Z,3.88
2023-04-10T18:51:04.563Z,4.53
2023-04-10T18:55:58.119Z,3.95
2023-04-10T19:00:51.805Z,3.45
2023-04-10T19:05:45.701Z,3.60
2023-04-10T19:10:38.556Z,3.95
2023-04-10T19:15:31.450Z,3.97
2023-04-10T19:20:52.259Z,3.83
2023-04-10T19:25:38.654Z,3.85
2023-04-10T19:30:31.522Z,3.95
2023-04-10T19:35:24.983Z,3.85
2023-04-10T19:40:19.693Z,3.53
2023-04-10T19:45:13.228Z,3.50
2023-04-10T19:50:06.376Z,3.55
2023-04-10T19:54:59.055Z,3.63
2023-04-10T19:59:54.999Z,3.00
2023-04-10T20:04:49.910Z,3.30
2023-04-10T20:09:43.049Z,3.25
2023-04-10T20:14:36.097Z,2.80
2023-04-10T20:19:30.061Z,3.53
2023-04-10T20:24:24.053Z,3.50
2023-04-10T20:29:17.530Z,3.53
2023-04-10T20:34:11.109Z,3.13
2023-04-10T20:39:04.685Z,3.17
2023-04-10T20:43:58.896Z,2.97
2023-04-10T20:48:52.567Z,3.28
2023-04-10T20:53:45.505Z,2.42
2023-04-10T20:58:40.775Z,2.28
2023-04-10T21:03:35.455Z,2.40
2023-04-10T21:08:28.823Z,2.90
2023-04-10T21:13:22.478Z,2.30
2023-04-10T21:18:15.609Z,2.45
2023-04-10T21:23:12.533Z,2.60
2023-04-10T21:28:06.290Z,2.95
2023-04-10T21:32:59.634Z,2.42
2023-04-10T21:37:58.839Z,3.00
2023-04-10T21:42:56.038Z,2.38
2023-04-10T21:47:51.773Z,2.65
2023-04-10T21:52:44.979Z,2.70
2023-04-10T21:57:38.434Z,2.47
2023-04-10T22:02:31.558Z,2.90
2023-04-10T22:07:25.556Z,2.45
2023-04-10T22:12:18.533Z,2.53
2023-04-10T22:17:11.897Z,2.20
2023-04-10T22:22:04.967Z,2.67
2023-04-10T22:26:58.185Z,2.05
2023-04-10T22:31:51.021Z,2.20
2023-04-10T22:36:44.820Z,2.58
2023-04-10T22:41:38.021Z,2.00
2023-04-10T22:46:30.729Z,2.28
2023-04-10T22:51:23.709Z,1.75
2023-04-10T22:56:17.577Z,2.22
2023-04-10T23:01:10.287Z,2.40
2023-04-10T23:06:03.490Z,2.08
2023-04-10T23:10:56.373Z,1.85
2023-04-10T23:15:53.570Z,1.95
2023-04-10T23:20:51.532Z,1.80
2023-04-10T23:25:45.014Z,1.90
2023-04-10T23:30:38.143Z,2.15
2023-04-10T23:35:31.165Z,1.60
2023-04-10T23:40:24.665Z,1.80
2023-04-10T23:45:18.195Z,1.60
2023-04-10T23:50:12.585Z,1.58
2023-04-10T23:55:08.006Z,1.50
